createdAt,value
2019-05-23T00:00:33.316Z,0.00
2019-05-23T00:01:33.331Z,0.00
2019-05-23T00:02:33.306Z,0.00
2019-05-23T00:03:33.300Z,0.00
2019-05-23T00:04:33.291Z,0.00
2019-05-23T00:05:33.284Z,0.00
2019-05-23T00:06:33.276Z,0.00
2019-05-23T00:07:33.273Z,0.00
2019-05-23T00:08:33.260Z,0.00
2019-05-23T00:09:33.257Z,0.00
2019-05-23T00:10:33.246Z,0.00
2019-05-23T00:11:33.253Z,0.00
2019-05-23T00:12:33.237Z,0.00
2019-05-23T00:13:33.229Z,0.00
2019-05-23T00:14:33.220Z,0.00
2019-05-23T00:15:33.211Z,0.00
2019-05-23T00:16:33.212Z,0.00
2019-05-23T00:17:33.203Z,0.00
2019-05-23T00:18:33.192Z,0.00
2019-05-23T00:19:33.202Z,0.00
2019-05-23T00:20:33.186Z,0.00
2019-05-23T00:21:33.171Z,0.00
2019-05-23T00:22:33.164Z,0.00
2019-05-23T00:23:33.159Z,0.00
2019-05-23T00:24:33.147Z,0.00
2019-05-23T00:25:33.141Z,0.00
2019-05-23T00:26:33.136Z,0.00
2019-05-23T00:27:33.130Z,0.00
2019-05-23T00:28:33.121Z,0.00
2019-05-23T00:29:33.118Z,0.00
2019-05-23T00:30:33.107Z,0.00
2019-05-23T00:31:33.104Z,0.00
2019-05-23T00:32:33.092Z,0.00
2019-05-23T00:33:33.089Z,0.00
2019-05-23T00:34:33.078Z,0.00
2019-05-23T00:35:33.073Z,0.00
2019-05-23T00:36:33.062Z,0.00
2019-05-23T00:37:33.060Z,0.00
2019-05-23T00:38:33.068Z,0.00
2019-05-23T00:39:33.047Z,0.00
2019-05-23T00:40:33.036Z,0.00
2019-05-23T00:41:33.033Z,0.00
2019-05-23T00:42:33.024Z,0.00
2019-05-23T00:43:33.016Z,0.00
2019-05-23T00:44:33.008Z,0.00
2019-05-23T00:45:33.000Z,0.00
2019-05-23T00:46:32.995Z,0.00
2019-05-23T00:47:32.981Z,0.00
2019-05-23T00:48:32.984Z,0.00
2019-05-23T00:49:32.973Z,0.00
2019-05-23T00:50:32.969Z,0.00
2019-05-23T00:51:32.970Z,0.00
2019-05-23T00:52:32.946Z,0.00
2019-05-23T00:53:32.942Z,0.00
2019-05-23T00:54:32.936Z,0.00
2019-05-23T00:55:32.926Z,0.00
2019-05-23T00:56:32.919Z,0.00
2019-05-23T00:57:32.917Z,0.00
2019-05-23T00:58:32.948Z,0.00
2019-05-23T00:59:32.904Z,0.00
2019-05-23T01:00:32.891Z,0.00
2019-05-23T01:01:32.883Z,0.00
2019-05-23T01:02:32.881Z,0.00
2019-05-23T01:03:32.865Z,0.00
2019-05-23T01:04:32.862Z,0.00
2019-05-23T01:05:32.851Z,0.00
2019-05-23T01:06:32.848Z,0.00
2019-05-23T01:07:32.840Z,0.00
2019-05-23T01:08:32.831Z,0.00
2019-05-23T01:09:32.826Z,0.00
2019-05-23T01:10:32.814Z,0.00
2019-05-23T01:11:32.809Z,0.00
2019-05-23T01:12:32.807Z,0.00
2019-05-23T01:13:32.796Z,0.00
2019-05-23T01:14:32.791Z,0.00
2019-05-23T01:15:32.776Z,0.00
2019-05-23T01:16:32.773Z,0.00
2019-05-23T01:17:32.764Z,0.00
2019-05-23T01:18:32.756Z,0.00
2019-05-23T01:19:32.747Z,0.00
2019-05-23T01:20:32.745Z,0.00
2019-05-23T01:21:32.735Z,0.00
2019-05-23T01:22:32.728Z,0.00
2019-05-23T01:23:32.719Z,0.00
2019-05-23T01:24:32.711Z,0.00
2019-05-23T01:25:32.702Z,0.00
2019-05-23T01:26:32.703Z,0.00
2019-05-23T01:27:32.715Z,0.00
2019-05-23T01:28:32.680Z,0.00
2019-05-23T01:29:37.635Z,0.00
2019-05-23T01:30:32.668Z,0.00
2019-05-23T01:31:32.656Z,0.00
2019-05-23T01:32:32.646Z,0.00
2019-05-23T01:33:32.644Z,0.00
2019-05-23T01:34:32.633Z,0.00
2019-05-23T01:35:32.628Z,0.00
2019-05-23T01:36:32.622Z,0.00
2019-05-23T01:37:32.614Z,0.00
2019-05-23T01:38:32.612Z,0.00
2019-05-23T01:39:32.598Z,0.00
2019-05-23T01:40:32.588Z,0.00
2019-05-23T01:41:32.580Z,0.00
2019-05-23T01:42:32.576Z,0.00
2019-05-23T01:43:32.566Z,0.00
2019-05-23T01:44:32.561Z,0.00
2019-05-23T01:45:32.550Z,0.00
2019-05-23T01:46:32.545Z,0.00
2019-05-23T01:47:32.537Z,0.00
2019-05-23T01:48:32.528Z,0.00
2019-05-23T01:49:32.525Z,0.00
2019-05-23T01:50:32.515Z,0.00
2019-05-23T01:51:32.508Z,0.00
2019-05-23T01:52:32.502Z,0.00
2019-05-23T01:53:32.487Z,0.00
2019-05-23T01:54:32.482Z,0.00
2019-05-23T01:55:32.478Z,0.00
2019-05-23T01:56:32.473Z,0.00
2019-05-23T01:57:32.459Z,0.00
2019-05-23T01:58:32.448Z,0.00
2019-05-23T01:59:32.442Z,0.00
2019-05-23T02:00:32.434Z,0.00
2019-05-23T02:01:32.438Z,0.00
2019-05-23T02:02:32.417Z,0.00
2019-05-23T02:03:32.413Z,0.00
2019-05-23T02:04:32.408Z,0.00
2019-05-23T02:05:32.405Z,0.00
2019-05-23T02:06:32.388Z,0.00
2019-05-23T02:07:32.382Z,0.00
2019-05-23T02:08:32.372Z,0.00
2019-05-23T02:09:32.370Z,0.00
2019-05-23T02:10:32.355Z,0.00
2019-05-23T02:11:32.356Z,0.00
2019-05-23T02:12:32.340Z,0.00
2019-05-23T02:13:32.335Z,0.00
2019-05-23T02:14:32.327Z,0.00
2019-05-23T02:15:32.318Z,0.00
2019-05-23T02:16:32.313Z,0.00
2019-05-23T02:17:32.312Z,0.00
2019-05-23T02:18:32.295Z,0.00
2019-05-23T02:19:32.286Z,0.00
2019-05-23T02:20:32.282Z,0.00
2019-05-23T02:21:32.272Z,0.00
2019-05-23T02:22:32.264Z,0.00
2019-05-23T02:23:32.257Z,0.00
2019-05-23T02:24:32.246Z,0.00
2019-05-23T02:25:32.243Z,0.00
2019-05-23T02:26:32.250Z,0.00
2019-05-23T02:27:32.224Z,0.00
2019-05-23T02:28:32.214Z,0.00
2019-05-23T02:29:32.309Z,0.00
2019-05-23T02:30:35.454Z,0.00
2019-05-23T02:31:32.187Z,0.00
2019-05-23T02:32:32.188Z,0.00
2019-05-23T02:33:32.181Z,0.00
2019-05-23T02:34:32.168Z,0.00
2019-05-23T02:35:32.160Z,0.00
2019-05-23T02:36:32.157Z,0.00
2019-05-23T02:37:32.147Z,0.00
2019-05-23T02:38:32.140Z,0.00
2019-05-23T02:39:32.131Z,0.00
2019-05-23T02:40:32.121Z,0.00
2019-05-23T02:41:32.118Z,0.00
2019-05-23T02:42:32.105Z,0.00
2019-05-23T02:43:32.100Z,0.00
2019-05-23T02:44:32.094Z,0.00
2019-05-23T02:45:32.084Z,0.00
2019-05-23T02:46:32.089Z,0.00
2019-05-23T02:47:32.066Z,0.00
2019-05-23T02:48:32.058Z,0.00
2019-05-23T02:49:32.055Z,0.00
2019-05-23T02:50:32.044Z,0.00
2019-05-23T02:51:32.035Z,0.00
2019-05-23T02:52:32.029Z,0.00
2019-05-23T02:53:32.020Z,0.00
2019-05-23T02:54:32.010Z,0.00
2019-05-23T02:55:32.051Z,0.00
2019-05-23T02:56:32.028Z,0.00
2019-05-23T02:57:31.986Z,0.00
2019-05-23T02:58:31.987Z,0.00
2019-05-23T02:59:31.972Z,0.00
2019-05-23T03:00:31.965Z,0.00
2019-05-23T03:01:31.952Z,0.00
2019-05-23T03:02:31.947Z,0.00
2019-05-23T03:03:31.941Z,0.00
2019-05-23T03:04:31.928Z,0.00
2019-05-23T03:05:31.925Z,0.00
2019-05-23T03:06:31.916Z,0.00
2019-05-23T03:07:31.910Z,0.00
2019-05-23T03:08:31.919Z,0.00
2019-05-23T03:09:31.892Z,0.00
2019-05-23T03:10:31.886Z,0.00
2019-05-23T03:11:31.871Z,0.00
2019-05-23T03:12:31.868Z,5.63
2019-05-23T03:13:31.857Z,5.63
2019-05-23T03:14:31.851Z,5.63
2019-05-23T03:15:31.843Z,5.63
2019-05-23T03:16:31.839Z,5.63
2019-05-23T03:17:31.827Z,5.63
2019-05-23T03:18:34.591Z,5.63
2019-05-23T03:19:31.814Z,5.63
2019-05-23T03:20:31.805Z,5.63
2019-05-23T03:21:31.796Z,11.25
2019-05-23T03:22:31.785Z,11.25
2019-05-23T03:23:31.781Z,11.25
2019-05-23T03:24:31.778Z,11.25
2019-05-23T03:25:31.760Z,11.25
2019-05-23T03:26:31.761Z,16.88
2019-05-23T03:27:31.753Z,16.88
2019-05-23T03:28:31.735Z,16.88
2019-05-23T03:29:31.735Z,16.88
2019-05-23T03:30:31.729Z,22.50
2019-05-23T03:31:32.875Z,22.50
2019-05-23T03:32:38.274Z,22.50
2019-05-23T03:33:31.727Z,28.13
2019-05-23T03:34:31.704Z,28.13
2019-05-23T03:35:31.690Z,28.13
2019-05-23T03:36:31.692Z,33.75
2019-05-23T03:37:31.674Z,33.75
2019-05-23T03:38:31.668Z,39.38
2019-05-23T03:39:31.649Z,39.38
2019-05-23T03:40:31.643Z,45.00
2019-05-23T03:41:31.639Z,45.00
2019-05-23T03:42:31.620Z,50.63
2019-05-23T03:43:31.617Z,50.63
2019-05-23T03:44:31.606Z,56.25
2019-05-23T03:45:31.605Z,56.25
2019-05-23T03:46:31.590Z,61.88
2019-05-23T03:47:31.583Z,61.88
2019-05-23T03:48:31.575Z,67.50
2019-05-23T03:49:31.569Z,73.13
2019-05-23T03:50:31.563Z,78.75
2019-05-23T03:51:31.547Z,78.75
2019-05-23T03:52:31.542Z,84.38
2019-05-23T03:53:31.540Z,90.00
2019-05-23T03:54:31.537Z,90.00
2019-05-23T03:55:31.520Z,95.63
2019-05-23T03:56:31.526Z,95.63
2019-05-23T03:57:31.506Z,101.25
2019-05-23T03:58:31.496Z,106.88
2019-05-23T03:59:31.514Z,112.50
2019-05-23T04:00:31.507Z,112.50
2019-05-23T04:01:47.137Z,118.13
2019-05-23T04:02:31.460Z,123.75
2019-05-23T04:03:31.454Z,129.38
2019-05-23T04:04:31.449Z,135.00
2019-05-23T04:05:31.438Z,140.63
2019-05-23T04:06:31.423Z,146.25
2019-05-23T04:07:31.423Z,146.25
2019-05-23T04:08:31.412Z,151.88
2019-05-23T04:09:31.408Z,157.50
2019-05-23T04:10:31.397Z,157.50
2019-05-23T04:11:31.388Z,157.50
2019-05-23T04:12:31.379Z,163.13
2019-05-23T04:13:31.375Z,163.13
2019-05-23T04:14:31.364Z,168.75
2019-05-23T04:15:31.353Z,180.00
2019-05-23T04:16:31.351Z,185.63
2019-05-23T04:17:31.342Z,191.25
2019-05-23T04:18:31.332Z,196.88
2019-05-23T04:19:31.341Z,196.88
2019-05-23T04:20:31.316Z,202.50
2019-05-23T04:21:31.311Z,202.50
2019-05-23T04:22:31.325Z,208.13
2019-05-23T04:23:31.299Z,213.75
2019-05-23T04:24:31.294Z,213.75
2019-05-23T04:25:31.275Z,213.75
2019-05-23T04:26:31.270Z,213.75
2019-05-23T04:27:31.347Z,208.13
2019-05-23T04:28:31.248Z,213.75
2019-05-23T04:29:31.244Z,219.38
2019-05-23T04:30:31.233Z,230.63
2019-05-23T04:31:31.226Z,236.25
2019-05-23T04:32:31.219Z,236.25
2019-05-23T04:33:31.223Z,230.63
2019-05-23T04:34:31.205Z,225.00
2019-05-23T04:35:31.209Z,219.38
2019-05-23T04:36:31.188Z,219.38
2019-05-23T04:37:31.180Z,213.75
2019-05-23T04:38:31.170Z,213.75
2019-05-23T04:39:31.164Z,219.38
2019-05-23T04:40:31.161Z,219.38
2019-05-23T04:41:31.156Z,225.00
2019-05-23T04:42:31.140Z,230.63
2019-05-23T04:43:31.138Z,236.25
2019-05-23T04:44:31.128Z,236.25
2019-05-23T04:45:31.120Z,236.25
2019-05-23T04:46:31.106Z,241.88
2019-05-23T04:47:31.129Z,247.50
2019-05-23T04:48:31.105Z,253.13
2019-05-23T04:49:31.099Z,264.38
2019-05-23T04:50:31.157Z,275.63
2019-05-23T04:51:31.089Z,286.88
2019-05-23T04:52:31.064Z,298.13
2019-05-23T04:53:31.059Z,320.63
2019-05-23T04:54:31.060Z,388.13
2019-05-23T04:55:31.053Z,478.13
2019-05-23T04:56:31.044Z,534.38
2019-05-23T04:57:31.036Z,607.50
2019-05-23T04:58:31.020Z,624.38
2019-05-23T04:59:31.009Z,652.50
2019-05-23T05:00:31.008Z,641.25
2019-05-23T05:01:30.992Z,556.88
2019-05-23T05:02:30.986Z,433.13
2019-05-23T05:03:30.984Z,393.75
2019-05-23T05:04:30.974Z,421.88
2019-05-23T05:05:30.969Z,506.25
2019-05-23T05:06:30.958Z,652.50
2019-05-23T05:07:30.952Z,916.88
2019-05-23T05:08:30.946Z,1080.00
2019-05-23T05:09:32.092Z,1068.75
2019-05-23T05:10:31.013Z,1141.88
2019-05-23T05:11:30.924Z,1209.38
2019-05-23T05:12:30.914Z,1170.00
2019-05-23T05:13:30.915Z,1175.63
2019-05-23T05:14:30.901Z,1175.63
2019-05-23T05:15:30.894Z,1226.25
2019-05-23T05:16:31.170Z,1215.00
2019-05-23T05:17:30.875Z,1271.25
2019-05-23T05:18:30.870Z,1406.25
2019-05-23T05:19:30.868Z,1575.00
2019-05-23T05:20:30.860Z,1608.75
2019-05-23T05:21:30.858Z,1608.75
2019-05-23T05:22:30.841Z,1614.38
2019-05-23T05:23:30.839Z,1530.00
2019-05-23T05:24:30.835Z,1591.88
2019-05-23T05:25:30.828Z,1715.63
2019-05-23T05:26:30.820Z,1642.50
2019-05-23T05:27:30.825Z,1715.63
2019-05-23T05:28:30.813Z,1828.13
2019-05-23T05:29:30.807Z,1816.88
2019-05-23T05:30:30.800Z,1743.75
2019-05-23T05:31:30.793Z,1777.50
2019-05-23T05:32:44.158Z,1828.13
2019-05-23T05:33:30.785Z,1850.63
2019-05-23T05:34:30.776Z,1974.38
2019-05-23T05:35:30.773Z,1980.00
2019-05-23T05:36:30.768Z,2013.75
2019-05-23T05:37:30.763Z,1974.38
2019-05-23T05:38:30.758Z,1923.75
2019-05-23T05:39:30.762Z,1974.38
2019-05-23T05:40:30.768Z,2070.00
2019-05-23T05:41:30.745Z,2148.75
2019-05-23T05:42:30.738Z,2098.13
2019-05-23T05:43:30.738Z,1569.38
2019-05-23T05:44:30.733Z,1389.38
2019-05-23T05:45:30.721Z,2047.50
2019-05-23T05:46:30.719Z,2255.63
2019-05-23T05:47:30.716Z,2278.13
2019-05-23T05:48:30.715Z,2306.25
2019-05-23T05:49:30.713Z,2306.25
2019-05-23T05:50:30.707Z,2176.88
2019-05-23T05:51:30.704Z,1935.00
2019-05-23T05:52:30.699Z,1906.88
2019-05-23T05:53:30.696Z,1878.75
2019-05-23T05:54:30.703Z,1771.88
2019-05-23T05:55:30.690Z,1935.00
2019-05-23T05:56:30.684Z,2002.50
2019-05-23T05:57:30.688Z,2103.75
2019-05-23T05:58:30.678Z,1980.00
2019-05-23T05:59:30.673Z,1783.13
2019-05-23T06:00:30.669Z,1659.38
2019-05-23T06:01:34.097Z,1462.50
2019-05-23T06:02:30.899Z,1310.63
2019-05-23T06:03:30.663Z,1248.75
2019-05-23T06:04:30.662Z,1220.63
2019-05-23T06:05:30.663Z,1209.38
2019-05-23T06:06:30.653Z,1203.75
2019-05-23T06:07:30.642Z,1198.13
2019-05-23T06:08:30.641Z,1203.75
2019-05-23T06:09:30.648Z,1226.25
2019-05-23T06:10:30.637Z,1237.50
2019-05-23T06:11:30.643Z,1248.75
2019-05-23T06:12:30.653Z,1220.63
2019-05-23T06:13:30.630Z,1276.88
2019-05-23T06:14:30.630Z,1676.25
2019-05-23T06:15:30.633Z,2621.25
2019-05-23T06:16:30.629Z,2913.75
2019-05-23T06:17:30.641Z,2823.75
2019-05-23T06:18:30.624Z,2463.75
2019-05-23T06:19:30.623Z,1445.63
2019-05-23T06:20:30.618Z,793.13
2019-05-23T06:21:30.776Z,1057.50
2019-05-23T06:22:30.634Z,2182.50
2019-05-23T06:23:30.625Z,3026.25
2019-05-23T06:24:45.146Z,3121.88
2019-05-23T06:25:30.613Z,3223.13
2019-05-23T06:26:30.603Z,3403.13
2019-05-23T06:27:30.603Z,3470.63
2019-05-23T06:28:30.608Z,3515.63
2019-05-23T06:29:30.604Z,3403.13
2019-05-23T06:30:32.729Z,3420.00
2019-05-23T06:31:30.600Z,3616.88
2019-05-23T06:32:31.598Z,3588.75
2019-05-23T06:33:30.598Z,3538.13
2019-05-23T06:34:30.605Z,3526.88
2019-05-23T06:35:30.633Z,3324.38
2019-05-23T06:36:30.599Z,3363.75
2019-05-23T06:37:34.170Z,3543.75
2019-05-23T06:38:30.605Z,3605.63
2019-05-23T06:39:30.594Z,3667.50
2019-05-23T06:40:30.590Z,3605.63
2019-05-23T06:41:30.586Z,3538.13
2019-05-23T06:42:30.586Z,3774.38
2019-05-23T06:43:30.597Z,3712.50
2019-05-23T06:44:30.598Z,3555.00
2019-05-23T06:45:30.592Z,3909.38
2019-05-23T06:46:30.589Z,3960.00
2019-05-23T06:47:32.144Z,3971.25
2019-05-23T06:48:30.588Z,4168.13
2019-05-23T06:49:30.603Z,4275.00
2019-05-23T06:50:30.590Z,4280.63
2019-05-23T06:51:30.590Z,4393.13
2019-05-23T06:52:30.591Z,3498.75
2019-05-23T06:53:30.591Z,3251.25
2019-05-23T06:54:32.136Z,4376.25
2019-05-23T06:55:30.591Z,4359.38
2019-05-23T06:56:30.586Z,4325.63
2019-05-23T06:57:30.595Z,4331.25
2019-05-23T06:58:30.635Z,4280.63
2019-05-23T06:59:30.594Z,4404.38
2019-05-23T07:00:30.589Z,4460.63
2019-05-23T07:01:30.592Z,4432.50
2019-05-23T07:02:32.235Z,4449.38
2019-05-23T07:03:41.806Z,4398.75
2019-05-23T07:04:30.598Z,3909.38
2019-05-23T07:05:30.608Z,3223.13
2019-05-23T07:06:30.598Z,2908.13
2019-05-23T07:07:30.600Z,2880.00
2019-05-23T07:08:30.607Z,2975.63
2019-05-23T07:09:30.608Z,3346.88
2019-05-23T07:10:30.611Z,3639.38
2019-05-23T07:11:30.612Z,3577.50
2019-05-23T07:12:30.613Z,3481.88
2019-05-23T07:13:30.615Z,3476.25
2019-05-23T07:14:30.619Z,3414.38
2019-05-23T07:15:30.615Z,3273.75
2019-05-23T07:16:30.618Z,3290.63
2019-05-23T07:17:30.618Z,3656.25
2019-05-23T07:18:30.625Z,3791.25
2019-05-23T07:19:30.624Z,3650.63
2019-05-23T07:20:30.627Z,3735.00
2019-05-23T07:21:30.638Z,3993.75
2019-05-23T07:22:30.634Z,4179.38
2019-05-23T07:23:30.633Z,4415.63
2019-05-23T07:24:30.631Z,4550.63
2019-05-23T07:25:30.640Z,4494.38
2019-05-23T07:26:30.643Z,4646.25
2019-05-23T07:27:30.645Z,4865.63
2019-05-23T07:28:30.648Z,4865.63
2019-05-23T07:29:30.651Z,4882.50
2019-05-23T07:30:30.653Z,5118.75
2019-05-23T07:31:31.479Z,5011.88
2019-05-23T07:32:30.661Z,4826.25
2019-05-23T07:33:30.668Z,4826.25
2019-05-23T07:34:30.668Z,4893.75
2019-05-23T07:35:30.667Z,5355.00
2019-05-23T07:36:30.683Z,5484.38
2019-05-23T07:37:30.677Z,5321.25
2019-05-23T07:38:30.678Z,5135.63
2019-05-23T07:39:30.708Z,5236.88
2019-05-23T07:40:30.687Z,5377.50
2019-05-23T07:41:30.709Z,5416.88
2019-05-23T07:42:30.691Z,5332.50
2019-05-23T07:43:30.691Z,4944.38
2019-05-23T07:44:30.699Z,4764.38
2019-05-23T07:45:30.704Z,5068.13
2019-05-23T07:46:30.704Z,5473.13
2019-05-23T07:47:30.707Z,5338.13
2019-05-23T07:48:30.708Z,5225.63
2019-05-23T07:49:30.714Z,5366.25
2019-05-23T07:50:30.719Z,5293.13
2019-05-23T07:51:30.719Z,5343.75
2019-05-23T07:52:30.724Z,5383.13
2019-05-23T07:53:30.725Z,5523.75
2019-05-23T07:54:30.729Z,5338.13
2019-05-23T07:55:30.736Z,5326.88
2019-05-23T07:56:30.748Z,5321.25
2019-05-23T07:57:30.743Z,5343.75
2019-05-23T07:58:30.749Z,5281.88
2019-05-23T07:59:30.756Z,5326.88
2019-05-23T08:00:30.758Z,5208.75
2019-05-23T08:01:30.765Z,4989.38
2019-05-23T08:02:30.771Z,5146.88
2019-05-23T08:03:30.773Z,5445.00
2019-05-23T08:04:30.789Z,5535.00
2019-05-23T08:05:30.775Z,5647.50
2019-05-23T08:06:30.781Z,5760.00
2019-05-23T08:07:32.814Z,5990.63
2019-05-23T08:08:30.789Z,6007.50
2019-05-23T08:09:30.793Z,5990.63
2019-05-23T08:10:34.078Z,6120.00
2019-05-23T08:11:30.800Z,6153.75
2019-05-23T08:12:30.806Z,6114.38
2019-05-23T08:13:30.835Z,6086.25
2019-05-23T08:14:30.815Z,6114.38
2019-05-23T08:15:30.821Z,6007.50
2019-05-23T08:16:30.824Z,5838.75
2019-05-23T08:17:30.823Z,5726.25
2019-05-23T08:18:30.830Z,5703.75
2019-05-23T08:19:30.834Z,5765.63
2019-05-23T08:20:30.835Z,5816.25
2019-05-23T08:21:30.845Z,5985.00
2019-05-23T08:22:30.848Z,5737.50
2019-05-23T08:23:30.854Z,4365.00
2019-05-23T08:24:30.867Z,2486.25
2019-05-23T08:25:30.861Z,2351.25
2019-05-23T08:26:30.875Z,2306.25
2019-05-23T08:27:30.871Z,2345.63
2019-05-23T08:28:30.878Z,2289.38
2019-05-23T08:29:30.884Z,6091.88
2019-05-23T08:30:30.890Z,3718.13
2019-05-23T08:31:30.891Z,5349.38
2019-05-23T08:32:30.902Z,5400.00
2019-05-23T08:33:30.906Z,5557.50
2019-05-23T08:34:41.264Z,6007.50
2019-05-23T08:35:30.915Z,5895.00
2019-05-23T08:36:30.927Z,5838.75
2019-05-23T08:37:30.943Z,5833.13
2019-05-23T08:38:30.926Z,5810.63
2019-05-23T08:39:30.942Z,6328.13
2019-05-23T08:40:30.947Z,6671.25
2019-05-23T08:41:30.944Z,6260.63
2019-05-23T08:42:30.955Z,5771.25
2019-05-23T08:43:31.106Z,5872.50
2019-05-23T08:44:30.964Z,5416.88
2019-05-23T08:45:30.973Z,5461.88
2019-05-23T08:46:30.974Z,5619.38
2019-05-23T08:47:30.978Z,5540.63
2019-05-23T08:48:30.991Z,6046.88
2019-05-23T08:49:30.994Z,5833.13
2019-05-23T08:50:31.002Z,5630.63
2019-05-23T08:51:31.002Z,6255.00
2019-05-23T08:52:31.006Z,6131.25
2019-05-23T08:53:31.009Z,5973.75
2019-05-23T08:54:31.015Z,6108.75
2019-05-23T08:55:31.027Z,6345.00
2019-05-23T08:56:31.033Z,6243.75
2019-05-23T08:57:31.044Z,5996.25
2019-05-23T08:58:31.043Z,5968.13
2019-05-23T08:59:31.046Z,6283.13
2019-05-23T09:00:31.051Z,6457.50
2019-05-23T09:01:31.057Z,6418.13
2019-05-23T09:02:31.064Z,6333.75
2019-05-23T09:03:31.078Z,6502.50
2019-05-23T09:04:31.082Z,6418.13
2019-05-23T09:05:31.086Z,6558.75
2019-05-23T09:06:31.093Z,6485.63
2019-05-23T09:07:31.092Z,6148.13
2019-05-23T09:08:31.105Z,6390.00
2019-05-23T09:09:31.113Z,6440.63
2019-05-23T09:10:31.122Z,6142.50
2019-05-23T09:11:31.118Z,5940.00
2019-05-23T09:12:31.131Z,5850.00
2019-05-23T09:13:31.141Z,5866.88
2019-05-23T09:14:31.138Z,5833.13
2019-05-23T09:15:31.140Z,5658.75
2019-05-23T09:16:33.231Z,5613.75
2019-05-23T09:17:31.162Z,5878.13
2019-05-23T09:18:31.188Z,6300.00
2019-05-23T09:19:31.173Z,6406.88
2019-05-23T09:20:31.179Z,6339.38
2019-05-23T09:21:31.200Z,6435.00
2019-05-23T09:22:31.183Z,6665.63
2019-05-23T09:23:31.189Z,6626.25
2019-05-23T09:24:31.204Z,6592.50
2019-05-23T09:25:31.209Z,6603.75
2019-05-23T09:26:31.208Z,6468.75
2019-05-23T09:27:34.479Z,6165.00
2019-05-23T09:28:31.226Z,6018.75
2019-05-23T09:29:31.228Z,5878.13
2019-05-23T09:30:31.235Z,6041.25
2019-05-23T09:31:31.250Z,6142.50
2019-05-23T09:32:31.249Z,6333.75
2019-05-23T09:33:31.258Z,6198.75
2019-05-23T09:34:31.263Z,6041.25
2019-05-23T09:35:31.313Z,5799.38
2019-05-23T09:36:31.275Z,5962.50
2019-05-23T09:37:31.287Z,6215.63
2019-05-23T09:38:31.288Z,6283.13
2019-05-23T09:39:31.295Z,6131.25
2019-05-23T09:40:31.301Z,6255.00
2019-05-23T09:41:31.310Z,6350.63
2019-05-23T09:42:31.321Z,6463.13
2019-05-23T09:43:31.333Z,6305.63
2019-05-23T09:44:31.328Z,6024.38
2019-05-23T09:45:31.337Z,5990.63
2019-05-23T09:46:31.344Z,6153.75
2019-05-23T09:47:31.350Z,6148.13
2019-05-23T09:48:31.359Z,6564.38
2019-05-23T09:49:31.366Z,6423.75
2019-05-23T09:50:31.373Z,6435.00
2019-05-23T09:51:31.392Z,6406.88
2019-05-23T09:52:31.383Z,6271.88
2019-05-23T09:53:31.396Z,6142.50
2019-05-23T09:54:31.406Z,5979.38
2019-05-23T09:55:32.253Z,6058.13
2019-05-23T09:56:31.422Z,5962.50
2019-05-23T09:57:31.440Z,6041.25
2019-05-23T09:58:31.428Z,6361.88
2019-05-23T09:59:31.436Z,6328.13
2019-05-23T10:00:31.451Z,5923.13
2019-05-23T10:01:32.254Z,6063.75
2019-05-23T10:02:31.473Z,6108.75
2019-05-23T10:03:31.478Z,6193.13
2019-05-23T10:04:31.490Z,6221.25
2019-05-23T10:05:42.780Z,6215.63
2019-05-23T10:06:31.495Z,6181.88
2019-05-23T10:07:31.502Z,6159.38
2019-05-23T10:08:32.259Z,5956.88
2019-05-23T10:09:31.520Z,5911.88
2019-05-23T10:10:31.528Z,6097.50
2019-05-23T10:11:31.536Z,6249.38
2019-05-23T10:12:31.539Z,6395.63
2019-05-23T10:13:38.913Z,6013.13
2019-05-23T10:14:31.561Z,5748.75
2019-05-23T10:15:31.570Z,5956.88
2019-05-23T10:16:31.572Z,6249.38
2019-05-23T10:17:31.582Z,5248.13
2019-05-23T10:18:31.612Z,5906.25
2019-05-23T10:19:31.600Z,6131.25
2019-05-23T10:20:31.605Z,5506.88
2019-05-23T10:21:31.641Z,3245.63
2019-05-23T10:22:31.622Z,4831.88
2019-05-23T10:23:31.631Z,2716.88
2019-05-23T10:24:31.698Z,1456.88
2019-05-23T10:25:31.640Z,1513.13
2019-05-23T10:26:31.648Z,5743.13
2019-05-23T10:27:31.657Z,5928.75
2019-05-23T10:28:31.666Z,6046.88
2019-05-23T10:29:32.283Z,5889.38
2019-05-23T10:30:31.680Z,6075.00
2019-05-23T10:31:31.689Z,5647.50
2019-05-23T10:32:31.694Z,5186.25
2019-05-23T10:33:31.709Z,5613.75
2019-05-23T10:34:31.730Z,5940.00
2019-05-23T10:35:31.715Z,5838.75
2019-05-23T10:36:31.722Z,5743.13
2019-05-23T10:37:31.724Z,5518.13
2019-05-23T10:38:31.738Z,5619.38
2019-05-23T10:39:31.748Z,4995.00
2019-05-23T10:40:31.757Z,5529.38
2019-05-23T10:41:31.765Z,5490.00
2019-05-23T10:42:31.763Z,5405.63
2019-05-23T10:43:31.771Z,5124.38
2019-05-23T10:44:31.777Z,5338.13
2019-05-23T10:45:31.789Z,5596.88
2019-05-23T10:46:31.798Z,5366.25
2019-05-23T10:47:31.835Z,5518.13
2019-05-23T10:48:31.810Z,5681.25
2019-05-23T10:49:31.817Z,5647.50
2019-05-23T10:50:44.220Z,5641.88
2019-05-23T10:51:31.823Z,5535.00
2019-05-23T10:52:31.839Z,5467.50
2019-05-23T10:53:31.849Z,5326.88
2019-05-23T10:54:31.852Z,1861.88
2019-05-23T10:55:31.852Z,5101.88
2019-05-23T10:56:31.868Z,5433.75
2019-05-23T10:57:31.877Z,5467.50
2019-05-23T10:58:31.884Z,5641.88
2019-05-23T10:59:31.892Z,5551.88
2019-05-23T11:00:32.802Z,4899.38
2019-05-23T11:01:31.906Z,5276.25
2019-05-23T11:02:31.910Z,5439.38
2019-05-23T11:03:31.921Z,5377.50
2019-05-23T11:04:31.926Z,4905.00
2019-05-23T11:05:31.932Z,4680.00
2019-05-23T11:06:31.954Z,5326.88
2019-05-23T11:07:31.947Z,5366.25
2019-05-23T11:08:31.968Z,5473.13
2019-05-23T11:09:37.843Z,5411.25
2019-05-23T11:10:31.971Z,5175.00
2019-05-23T11:11:31.983Z,5310.00
2019-05-23T11:12:31.975Z,3971.25
2019-05-23T11:13:31.998Z,1648.13
2019-05-23T11:14:31.998Z,1631.25
2019-05-23T11:15:32.006Z,1704.38
2019-05-23T11:16:32.010Z,1715.63
2019-05-23T11:17:32.024Z,1794.38
2019-05-23T11:18:32.031Z,3442.50
2019-05-23T11:19:32.034Z,2615.63
2019-05-23T11:20:35.851Z,5186.25
2019-05-23T11:21:32.042Z,5158.13
2019-05-23T11:22:32.048Z,5034.38
2019-05-23T11:23:32.055Z,5113.13
2019-05-23T11:24:32.065Z,5208.75
2019-05-23T11:25:32.065Z,4978.13
2019-05-23T11:26:32.072Z,4927.50
2019-05-23T11:27:32.081Z,5141.25
2019-05-23T11:28:32.089Z,5383.13
2019-05-23T11:29:32.094Z,5293.13
2019-05-23T11:30:32.099Z,5304.38
2019-05-23T11:31:32.103Z,5101.88
2019-05-23T11:32:32.115Z,4989.38
2019-05-23T11:33:32.121Z,4916.25
2019-05-23T11:34:32.127Z,4944.38
2019-05-23T11:35:32.143Z,5028.75
2019-05-23T11:36:36.307Z,4781.25
2019-05-23T11:37:32.145Z,4601.25
2019-05-23T11:38:32.154Z,4668.75
2019-05-23T11:39:32.152Z,4708.13
2019-05-23T11:40:33.750Z,4646.25
2019-05-23T11:41:32.177Z,4657.50
2019-05-23T11:42:32.176Z,4826.25
2019-05-23T11:43:32.186Z,4854.38
2019-05-23T11:44:32.198Z,4854.38
2019-05-23T11:45:32.203Z,4854.38
2019-05-23T11:46:32.206Z,4691.25
2019-05-23T11:47:32.347Z,4421.25
2019-05-23T11:48:32.221Z,4567.50
2019-05-23T11:49:32.233Z,4876.88
2019-05-23T11:50:32.239Z,4657.50
2019-05-23T11:51:32.263Z,4359.38
2019-05-23T11:52:32.248Z,4381.88
2019-05-23T11:53:32.265Z,4500.00
2019-05-23T11:54:32.270Z,4719.38
2019-05-23T11:55:32.299Z,4815.00
2019-05-23T11:56:32.292Z,4455.00
2019-05-23T11:57:32.287Z,4758.75
2019-05-23T11:58:32.949Z,4854.38
2019-05-23T11:59:32.292Z,3858.75
2019-05-23T12:00:32.314Z,4528.13
2019-05-23T12:01:32.305Z,4044.38
2019-05-23T12:02:32.322Z,3915.00
2019-05-23T12:03:32.324Z,3684.38
2019-05-23T12:04:32.341Z,3723.75
2019-05-23T12:05:32.367Z,3397.50
2019-05-23T12:06:32.345Z,3290.63
2019-05-23T12:07:32.355Z,3273.75
2019-05-23T12:08:32.361Z,3656.25
2019-05-23T12:09:32.370Z,3031.88
2019-05-23T12:10:32.365Z,2711.25
2019-05-23T12:11:36.379Z,2497.50
2019-05-23T12:12:32.387Z,2671.88
2019-05-23T12:13:32.397Z,2626.88
2019-05-23T12:14:32.402Z,2711.25
2019-05-23T12:15:32.399Z,2896.88
2019-05-23T12:16:32.415Z,2632.50
2019-05-23T12:17:32.409Z,2767.50
2019-05-23T12:18:32.423Z,3138.75
2019-05-23T12:19:32.484Z,3498.75
2019-05-23T12:20:32.430Z,3521.25
2019-05-23T12:21:32.436Z,3988.13
2019-05-23T12:22:32.450Z,4021.88
2019-05-23T12:23:32.449Z,4123.13
2019-05-23T12:24:35.237Z,3982.50
2019-05-23T12:25:32.455Z,3796.88
2019-05-23T12:26:32.460Z,3481.88
2019-05-23T12:27:32.475Z,2716.88
2019-05-23T12:28:32.471Z,3088.13